Flagstaff, Arizona
Current Conditions -  °F | °C
As of 12:57 AM on Friday 19 Dec 2014 (Local Time) from KFLG Reporting Station
Clear Clear  
Wind Chill: 16°   Ceiling: Unl
Heat Index: 16°   Visibility: 10mi
Dew Point: 12°   Wind: 0mph
Humidity: 84%   Direction: NA
Pressure: 30.2"   Gusts: NA
Location:  35.2°N, 111.65°W
Report Text: KFLG 190757Z AUTO 00000KT 10SM CLR M09/M11 A3020 RMK AO2 SLP240 I1000 T10891111 TSNO
Loading
Personal Weather Stations






























Interactive Weather Map New forecast layout! Learn more

10-Day Weather Forecast

Advertisements
Track Severe Weather on mobile